Time;durP1;ratioP1;P1;durP2;ratioP2;P2;SDS_P1;SDS_P2;PMS_P1;PMS_P2;Temp;Humidity;BMP_temperature;BMP_pressure;BME280_temperature;BME280_humidity;BME280_pressure;Samples;Min_cycle;Max_cycle;Signal;HPM_P1;HPM_P2
2022/07/21 00:01:20;;;;;;;8.98;7.07;;;21.40;99.90;;;;;;5020984;28;20080;-83
2022/07/21 00:03:46;;;;;;;8.25;7.22;;;21.40;99.90;;;;;;5020318;28;20086;-83
2022/07/21 00:06:12;;;;;;;11.82;7.57;;;21.30;99.90;;;;;;5022853;28;20045;-83
2022/07/21 00:08:37;;;;;;;8.98;7.90;;;21.30;99.90;;;;;;5022175;28;20077;-81
2022/07/21 00:11:03;;;;;;;10.07;8.27;;;21.30;99.90;;;;;;5020815;28;20126;-83
2022/07/21 00:13:29;;;;;;;14.40;9.18;;;21.30;99.90;;;;;;5022187;28;20049;-82
2022/07/21 00:15:54;;;;;;;9.88;8.25;;;21.30;99.90;;;;;;5022341;28;20398;-82
2022/07/21 00:18:20;;;;;;;10.68;8.77;;;21.30;99.90;;;;;;5021121;28;20038;-81
2022/07/21 00:20:46;;;;;;;13.20;8.88;;;21.30;99.90;;;;;;5021687;28;20427;-82
2022/07/21 00:23:11;;;;;;;14.80;8.73;;;21.30;99.90;;;;;;5021237;28;20049;-82
2022/07/21 00:25:37;;;;;;;14.15;9.63;;;21.20;99.90;;;;;;5020837;28;20136;-83
2022/07/21 00:28:04;;;;;;;12.93;9.27;;;21.20;99.90;;;;;;5022011;28;20496;-83
2022/07/21 00:30:29;;;;;;;14.15;10.43;;;21.20;99.90;;;;;;5022050;28;20057;-83
2022/07/21 00:32:55;;;;;;;14.10;9.88;;;21.20;99.90;;;;;;5021145;28;20030;-84
2022/07/21 00:35:20;;;;;;;14.32;11.02;;;21.20;99.90;;;;;;5022222;28;20175;-84
2022/07/21 00:37:46;;;;;;;18.83;10.55;;;21.20;99.90;;;;;;5021351;28;20041;-84
2022/07/21 00:40:13;;;;;;;17.83;10.70;;;21.20;99.90;;;;;;5020959;28;20037;-84
2022/07/21 00:42:39;;;;;;;17.10;11.23;;;21.20;99.90;;;;;;5021969;28;20108;-83
2022/07/21 00:45:07;;;;;;;13.43;10.30;;;21.20;99.90;;;;;;5020128;28;20042;-83
2022/07/21 00:47:33;;;;;;;12.73;11.40;;;21.20;99.90;;;;;;5021081;28;20550;-83
2022/07/21 00:50:01;;;;;;;12.60;10.95;;;21.20;99.90;;;;;;5021147;28;20116;-83
2022/07/21 00:52:26;;;;;;;13.50;11.25;;;21.20;99.90;;;;;;5021613;28;20045;-83
2022/07/21 00:54:53;;;;;;;19.83;12.75;;;21.20;99.90;;;;;;5019741;28;20045;-83
2022/07/21 00:57:18;;;;;;;17.95;10.93;;;21.10;99.90;;;;;;5021101;28;20501;-84
2022/07/21 00:59:45;;;;;;;14.90;12.80;;;21.20;99.90;;;;;;5021159;28;20045;-84
2022/07/21 01:02:11;;;;;;;17.98;12.88;;;21.10;99.90;;;;;;5019861;28;20052;-84
2022/07/21 01:04:37;;;;;;;15.93;11.93;;;21.10;99.90;;;;;;5020918;28;20073;-83
2022/07/21 01:07:04;;;;;;;14.13;11.85;;;21.10;99.90;;;;;;5020659;28;20073;-84
2022/07/21 01:09:31;;;;;;;16.95;13.43;;;21.10;99.90;;;;;;5019974;28;20455;-85
2022/07/21 01:11:58;;;;;;;17.60;13.15;;;21.10;99.90;;;;;;5019334;28;20103;-85
2022/07/21 01:14:24;;;;;;;18.58;14.82;;;21.00;99.90;;;;;;5016362;22;20080;-85
2022/07/21 01:16:50;;;;;;;16.13;12.15;;;21.00;99.90;;;;;;4999898;28;20092;-86
2022/07/21 01:19:16;;;;;;;14.75;12.98;;;21.00;99.90;;;;;;5001514;28;20049;-85
2022/07/21 01:21:45;;;;;;;14.05;11.52;;;21.00;99.90;;;;;;5000750;28;20628;-86
2022/07/21 01:24:11;;;;;;;21.45;13.68;;;21.00;99.90;;;;;;5000714;28;20081;-86
2022/07/21 01:26:42;;;;;;;22.35;13.48;;;21.00;99.90;;;;;;5001627;28;20081;-86
2022/07/21 01:29:11;;;;;;;18.95;13.95;;;21.00;99.90;;;;;;4999808;28;20065;-86
2022/07/21 01:31:38;;;;;;;21.20;12.75;;;21.00;99.90;;;;;;5001443;28;20045;-86
2022/07/21 01:34:04;;;;;;;16.65;13.95;;;21.00;99.90;;;;;;5000366;28;20135;-86
2022/07/21 01:36:29;;;;;;;19.30;13.10;;;21.00;99.90;;;;;;5001236;28;20089;-86
2022/07/21 01:41:40;;;;;;;26.42;14.43;;;20.90;99.90;;;;;;5001731;28;20045;-86
2022/07/21 01:44:07;;;;;;;22.02;14.45;;;20.90;99.90;;;;;;4998920;28;20609;-86
2022/07/21 01:46:40;;;;;;;16.90;13.88;;;20.90;99.90;;;;;;5000859;28;20061;-85
2022/07/21 01:49:06;;;;;;;16.95;13.27;;;20.90;99.90;;;;;;5000589;28;20605;-85
2022/07/21 01:51:32;;;;;;;18.20;13.02;;;20.90;99.90;;;;;;5000836;28;20469;-86
2022/07/21 01:53:58;;;;;;;19.55;14.93;;;20.90;99.90;;;;;;4998581;28;20053;-87
2022/07/21 01:56:26;;;;;;;18.98;14.70;;;20.90;99.90;;;;;;5001027;28;20033;-87
2022/07/21 01:58:55;;;;;;;18.42;14.07;;;20.90;99.90;;;;;;5000220;28;20042;-87
2022/07/21 02:01:22;;;;;;;19.67;14.85;;;20.90;99.90;;;;;;5000663;28;20115;-88
2022/07/21 02:03:49;;;;;;;16.90;14.30;;;20.80;99.90;;;;;;5000177;28;20041;-87
2022/07/21 02:06:15;;;;;;;16.58;14.70;;;20.80;99.90;;;;;;4999558;28;20050;-88
2022/07/21 02:08:42;;;;;;;16.80;13.50;;;20.80;99.90;;;;;;5001227;28;20040;-88
2022/07/21 02:11:08;;;;;;;14.60;13.00;;;20.80;99.90;;;;;;4998152;28;20054;-88
2022/07/21 02:13:34;;;;;;;17.10;14.80;;;20.80;99.90;;;;;;5012909;28;20502;-88
2022/07/21 02:15:59;;;;;;;19.35;13.52;;;20.80;99.90;;;;;;5018162;28;20047;-88
2022/07/21 02:18:25;;;;;;;22.27;12.75;;;20.70;99.90;;;;;;5018236;28;20080;-88
2022/07/21 02:20:51;;;;;;;23.52;15.45;;;20.70;99.90;;;;;;5018840;28;20438;-88
2022/07/21 02:23:17;;;;;;;17.77;12.82;;;20.70;99.90;;;;;;5018997;28;20121;-88
2022/07/21 02:25:44;;;;;;;15.68;11.75;;;20.70;99.90;;;;;;5019101;28;20458;-89
2022/07/21 02:28:10;;;;;;;13.95;12.15;;;20.70;99.90;;;;;;5019092;28;20076;-88
2022/07/21 02:30:36;;;;;;;13.85;11.65;;;20.70;99.90;;;;;;5020428;28;20096;-89
2022/07/21 02:33:02;;;;;;;19.85;13.40;;;20.70;99.90;;;;;;5019487;28;20041;-88
2022/07/21 02:35:28;;;;;;;18.63;12.95;;;20.70;99.90;;;;;;5018868;28;20500;-88
2022/07/21 02:37:54;;;;;;;16.70;12.50;;;20.70;99.90;;;;;;5018704;28;20053;-88
2022/07/21 02:40:20;;;;;;;19.98;14.25;;;20.70;99.90;;;;;;5017989;28;20054;-89
2022/07/21 02:42:45;;;;;;;20.02;14.57;;;20.60;99.90;;;;;;5002219;28;20064;-89
2022/07/21 02:45:11;;;;;;;18.35;13.75;;;20.60;99.90;;;;;;5020295;28;20045;-89
2022/07/21 02:48:06;;;;;;;18.48;13.95;;;20.60;99.90;;;;;;5020245;28;20041;-88
2022/07/21 02:50:34;;;;;;;18.90;15.18;;;20.60;99.90;;;;;;5018461;28;20053;-88
2022/07/21 02:53:06;;;;;;;17.08;14.23;;;20.60;99.90;;;;;;5018228;28;20500;-88
2022/07/21 02:55:33;;;;;;;21.33;15.45;;;20.50;99.90;;;;;;5017721;28;20128;-88
2022/07/21 02:58:09;;;;;;;19.65;14.02;;;20.50;99.90;;;;;;5018375;28;20060;-89
2022/07/21 03:00:37;;;;;;;19.17;13.45;;;20.50;99.90;;;;;;5018586;28;20439;-87
2022/07/21 03:03:03;;;;;;;19.15;13.65;;;20.50;99.90;;;;;;5001754;28;20046;-88
2022/07/21 03:05:29;;;;;;;18.83;14.77;;;20.50;99.90;;;;;;5019656;28;20052;-88
2022/07/21 03:07:55;;;;;;;18.15;12.82;;;20.40;99.90;;;;;;5019472;28;20132;-88
2022/07/21 03:10:21;;;;;;;17.23;13.05;;;20.40;99.90;;;;;;5017821;28;20045;-89
2022/07/21 03:12:46;;;;;;;16.48;12.70;;;20.40;99.90;;;;;;5011359;28;20049;-87
2022/07/21 03:15:12;;;;;;;20.73;13.50;;;20.40;99.90;;;;;;4999324;28;20089;-86
2022/07/21 03:17:37;;;;;;;20.42;14.68;;;20.40;99.90;;;;;;4999204;28;20050;-86
2022/07/21 03:20:04;;;;;;;20.15;13.43;;;20.40;99.90;;;;;;4997650;28;20618;-87
2022/07/21 03:22:29;;;;;;;15.25;12.70;;;20.40;99.90;;;;;;4999685;28;20165;-87
2022/07/21 03:24:55;;;;;;;21.85;14.80;;;20.30;99.90;;;;;;4998806;28;20128;-87
2022/07/21 03:27:20;;;;;;;21.20;13.52;;;20.30;99.90;;;;;;5003598;28;20053;-87
2022/07/21 03:29:46;;;;;;;20.50;13.77;;;20.30;99.90;;;;;;5001836;28;20052;-87
2022/07/21 03:32:11;;;;;;;18.50;13.15;;;20.30;99.90;;;;;;5003887;28;20755;-87
2022/07/21 03:34:37;;;;;;;18.27;13.15;;;20.30;99.90;;;;;;5001796;28;20052;-86
2022/07/21 03:37:03;;;;;;;18.50;14.73;;;20.30;99.90;;;;;;5002060;28;20072;-86
2022/07/21 03:39:29;;;;;;;16.63;13.77;;;20.30;99.90;;;;;;5002340;28;20042;-86
2022/07/21 03:41:54;;;;;;;20.60;15.45;;;20.30;99.90;;;;;;5003163;28;20515;-87
2022/07/21 03:44:20;;;;;;;18.35;15.02;;;20.30;99.90;;;;;;5003184;28;20050;-88
2022/07/21 03:46:45;;;;;;;24.83;16.67;;;20.30;99.90;;;;;;5003348;28;20446;-88
2022/07/21 03:49:11;;;;;;;19.65;15.88;;;20.20;99.90;;;;;;5002100;28;20111;-88
2022/07/21 03:51:36;;;;;;;22.30;15.82;;;20.20;99.90;;;;;;5001280;28;20531;-87
2022/07/21 03:54:02;;;;;;;23.05;16.58;;;20.30;99.90;;;;;;5000651;28;20663;-88
2022/07/21 03:56:28;;;;;;;20.92;16.48;;;20.20;99.90;;;;;;5001871;28;20049;-87
2022/07/21 03:58:54;;;;;;;22.48;16.92;;;20.20;99.90;;;;;;4984922;28;20614;-87
2022/07/21 04:01:20;;;;;;;23.45;16.17;;;20.20;99.90;;;;;;5002972;28;20064;-87
2022/07/21 04:03:46;;;;;;;20.15;16.95;;;20.20;99.90;;;;;;5002266;28;20566;-87
2022/07/21 04:06:11;;;;;;;19.75;16.27;;;20.20;99.90;;;;;;5003103;28;20504;-88
2022/07/21 04:08:38;;;;;;;22.58;15.82;;;20.20;99.90;;;;;;5000462;28;20061;-87
2022/07/21 04:11:04;;;;;;;22.02;19.58;;;20.20;99.90;;;;;;5002399;28;20413;-88
2022/07/21 04:13:29;;;;;;;21.23;18.42;;;20.10;99.90;;;;;;5014683;28;20407;-88
2022/07/21 04:15:55;;;;;;;24.80;19.58;;;20.20;99.90;;;;;;5020851;28;20061;-89
2022/07/21 04:18:21;;;;;;;22.20;19.88;;;20.10;99.90;;;;;;5020872;28;20052;-89
2022/07/21 04:20:46;;;;;;;30.20;18.95;;;20.20;99.90;;;;;;5021529;28;20061;-89
2022/07/21 04:23:12;;;;;;;27.75;19.65;;;20.10;99.90;;;;;;5021219;28;20491;-90
2022/07/21 04:25:38;;;;;;;27.02;21.05;;;20.10;99.90;;;;;;5021629;28;20041;-89
2022/07/21 04:28:04;;;;;;;25.25;19.58;;;20.10;99.90;;;;;;5021827;28;20051;-89
2022/07/21 04:30:30;;;;;;;27.00;20.00;;;20.10;99.90;;;;;;5022224;28;20095;-89
2022/07/21 04:32:56;;;;;;;23.55;18.95;;;20.10;99.90;;;;;;5021430;28;20037;-89
2022/07/21 04:35:22;;;;;;;26.00;19.00;;;20.10;99.90;;;;;;5021823;28;20042;-89
2022/07/21 04:37:48;;;;;;;24.65;17.30;;;20.10;99.90;;;;;;5020729;28;20803;-89
2022/07/21 04:40:15;;;;;;;26.27;18.42;;;20.10;99.90;;;;;;5019243;28;20050;-88
2022/07/21 04:42:41;;;;;;;23.77;19.08;;;20.10;99.90;;;;;;5020490;28;20052;-89
2022/07/21 04:45:08;;;;;;;24.58;17.63;;;20.10;99.90;;;;;;5003874;28;20143;-89
2022/07/21 04:47:52;;;;;;;24.83;19.58;;;20.10;99.90;;;;;;5021597;28;20458;-89
2022/07/21 04:50:19;;;;;;;23.08;17.13;;;20.10;99.90;;;;;;5020097;28;20064;-89
2022/07/21 04:52:45;;;;;;;19.98;15.52;;;20.10;99.90;;;;;;5019883;28;20049;-90
2022/07/21 04:55:11;;;;;;;20.77;14.32;;;20.10;99.90;;;;;;5020809;28;20100;-89
2022/07/21 04:57:43;;;;;;;18.02;12.77;;;20.10;99.90;;;;;;5020210;28;20099;-89
2022/07/21 05:00:11;;;;;;;16.98;12.30;;;20.10;99.90;;;;;;5021440;28;20045;-89
2022/07/21 05:02:37;;;;;;;17.08;12.52;;;20.10;99.90;;;;;;5021428;28;20120;-89
2022/07/21 05:05:04;;;;;;;16.63;11.40;;;20.00;99.90;;;;;;5019605;28;20292;-90
2022/07/21 05:07:30;;;;;;;22.20;13.63;;;20.00;99.90;;;;;;5015970;28;20048;-90
2022/07/21 05:09:57;;;;;;;13.98;10.55;;;20.00;99.90;;;;;;5019007;28;20503;-90
2022/07/21 05:12:22;;;;;;;13.60;10.80;;;20.00;99.90;;;;;;5015464;28;20046;-91
2022/07/21 05:14:48;;;;;;;17.08;11.25;;;20.00;99.90;;;;;;5000295;28;20069;-90
2022/07/21 05:17:13;;;;;;;16.92;10.60;;;20.00;99.90;;;;;;5001028;28;20053;-88
2022/07/21 05:19:39;;;;;;;11.85;9.73;;;20.00;99.90;;;;;;5001482;28;20395;-90
2022/07/21 05:22:04;;;;;;;25.17;12.80;;;20.00;99.90;;;;;;5001203;28;20053;-88
2022/07/21 05:24:30;;;;;;;17.55;13.57;;;20.00;99.90;;;;;;4999807;28;20057;-89
2022/07/21 05:26:56;;;;;;;14.85;11.02;;;20.00;99.90;;;;;;5000865;28;20561;-89
2022/07/21 05:29:21;;;;;;;15.38;11.63;;;20.00;99.90;;;;;;5001376;28;20053;-89
2022/07/21 05:31:47;;;;;;;14.07;11.07;;;20.00;99.90;;;;;;5000632;28;20038;-89
2022/07/21 05:34:12;;;;;;;14.57;11.23;;;20.00;99.90;;;;;;5001320;28;20139;-89
2022/07/21 05:36:38;;;;;;;13.82;11.27;;;20.00;99.90;;;;;;5001095;28;20073;-89
2022/07/21 05:39:03;;;;;;;15.07;9.75;;;20.00;99.90;;;;;;4999134;28;20049;-89
2022/07/21 05:41:29;;;;;;;24.35;12.10;;;20.00;99.90;;;;;;5000469;28;20446;-88
2022/07/21 05:43:54;;;;;;;10.95;9.43;;;20.00;99.90;;;;;;5002368;28;20038;-81
2022/07/21 05:46:20;;;;;;;14.63;8.80;;;20.00;99.90;;;;;;5000807;28;20451;-87
2022/07/21 05:48:45;;;;;;;13.43;9.63;;;20.00;99.90;;;;;;5001712;28;20065;-85
2022/07/21 05:51:11;;;;;;;9.98;8.93;;;20.00;99.90;;;;;;5001111;28;20050;-87
2022/07/21 05:53:37;;;;;;;14.80;8.80;;;20.00;99.90;;;;;;5000939;28;20030;-85
2022/07/21 05:56:02;;;;;;;13.77;8.38;;;20.00;99.90;;;;;;5000809;28;20116;-85
2022/07/21 05:58:28;;;;;;;10.32;9.25;;;20.00;99.90;;;;;;5001425;28;20113;-83
2022/07/21 06:01:12;;;;;;;11.95;8.07;;;20.00;99.90;;;;;;4998081;28;20546;-89
2022/07/21 06:03:40;;;;;;;19.13;9.20;;;20.10;99.90;;;;;;5000647;28;20096;-89
2022/07/21 06:06:06;;;;;;;10.75;7.53;;;20.10;99.90;;;;;;4999754;28;20503;-89
2022/07/21 06:08:32;;;;;;;10.35;6.20;;;20.00;99.90;;;;;;4998020;28;20033;-89
2022/07/21 06:10:58;;;;;;;9.77;6.15;;;20.10;99.90;;;;;;4999691;28;20117;-89
2022/07/21 06:13:24;;;;;;;9.05;6.88;;;20.00;99.90;;;;;;5000018;28;20046;-89
2022/07/21 06:15:49;;;;;;;11.23;6.95;;;20.00;99.90;;;;;;4998053;28;20057;-89
2022/07/21 06:18:15;;;;;;;10.40;8.18;;;20.00;99.90;;;;;;4981261;28;20042;-88
2022/07/21 06:20:41;;;;;;;9.50;8.20;;;20.10;99.90;;;;;;4999400;28;20038;-89
2022/07/21 06:23:07;;;;;;;12.18;7.53;;;20.10;99.90;;;;;;4999063;28;20065;-90
2022/07/21 06:25:33;;;;;;;10.93;9.27;;;20.10;99.90;;;;;;4998405;28;20042;-88
2022/07/21 06:27:58;;;;;;;10.77;8.10;;;20.10;99.90;;;;;;4998131;28;20065;-89
2022/07/21 06:30:24;;;;;;;10.88;7.55;;;20.10;99.90;;;;;;4997468;28;20065;-88
2022/07/21 06:32:50;;;;;;;9.27;6.55;;;20.20;99.90;;;;;;4998752;28;20137;-89
2022/07/21 06:35:15;;;;;;;9.23;7.07;;;20.10;99.90;;;;;;4998703;28;20435;-89
2022/07/21 06:37:45;;;;;;;11.40;7.93;;;20.20;99.90;;;;;;4983805;28;20049;-88
2022/07/21 06:40:12;;;;;;;10.90;6.28;;;20.20;99.90;;;;;;5000836;28;20100;-89
2022/07/21 06:42:38;;;;;;;12.65;8.00;;;20.20;99.90;;;;;;5001258;28;20038;-89
2022/07/21 06:45:04;;;;;;;8.55;7.68;;;20.20;99.90;;;;;;4999104;28;20042;-89
2022/07/21 06:47:30;;;;;;;9.52;7.38;;;20.20;99.90;;;;;;4999684;28;20092;-89
2022/07/21 06:49:55;;;;;;;8.07;6.75;;;20.20;99.90;;;;;;4999099;28;20033;-89
2022/07/21 06:52:21;;;;;;;14.27;9.40;;;20.20;99.90;;;;;;4999485;28;20081;-89
2022/07/21 06:54:47;;;;;;;12.43;9.55;;;20.20;99.90;;;;;;4998229;28;20231;-89
2022/07/21 06:57:13;;;;;;;13.50;9.45;;;20.20;99.90;;;;;;4984201;28;20044;-89
2022/07/21 06:59:39;;;;;;;10.48;8.80;;;20.20;99.90;;;;;;4999977;28;20054;-89
2022/07/21 07:02:05;;;;;;;13.15;9.38;;;20.20;99.90;;;;;;5001597;28;20037;-88
2022/07/21 07:04:30;;;;;;;13.27;9.68;;;20.20;99.90;;;;;;5002210;28;20454;-89
2022/07/21 07:06:56;;;;;;;12.70;8.73;;;20.20;99.90;;;;;;5003451;28;20169;-89
2022/07/21 07:09:22;;;;;;;10.45;8.77;;;20.20;99.90;;;;;;5003013;28;20050;-90
2022/07/21 07:11:50;;;;;;;15.10;8.88;;;20.20;99.90;;;;;;5005792;28;20049;-90
2022/07/21 07:14:16;;;;;;;12.65;10.02;;;20.20;99.90;;;;;;4983532;28;20258;-88
2022/07/21 07:16:41;;;;;;;11.45;9.68;;;20.20;99.90;;;;;;4984142;28;20511;-89
2022/07/21 07:19:07;;;;;;;15.15;12.15;;;20.20;99.90;;;;;;4982778;28;20580;-90
2022/07/21 07:21:33;;;;;;;16.60;11.55;;;20.20;99.90;;;;;;4983344;28;20675;-89
2022/07/21 07:23:58;;;;;;;15.65;12.35;;;20.30;99.90;;;;;;4982338;28;20046;-90
2022/07/21 07:26:24;;;;;;;14.07;10.57;;;20.20;99.90;;;;;;4982639;28;20527;-90
2022/07/21 07:28:49;;;;;;;13.70;11.82;;;20.20;99.90;;;;;;4982637;28;20046;-89
2022/07/21 07:31:15;;;;;;;14.18;11.48;;;20.20;99.90;;;;;;4983405;28;20038;-91
2022/07/21 07:33:41;;;;;;;18.05;12.40;;;20.20;99.90;;;;;;5008712;28;20437;-90
2022/07/21 07:36:10;;;;;;;14.65;11.85;;;20.20;99.90;;;;;;5021291;28;20052;-91
2022/07/21 07:38:36;;;;;;;19.08;12.82;;;20.20;99.90;;;;;;5022175;28;20646;-91
2022/07/21 07:41:01;;;;;;;19.92;12.63;;;20.20;99.90;;;;;;5022311;28;20037;-91
2022/07/21 07:43:27;;;;;;;16.23;11.68;;;20.20;99.90;;;;;;5021235;28;20049;-91
2022/07/21 07:45:52;;;;;;;13.60;11.65;;;20.20;99.90;;;;;;5022987;28;20513;-91
2022/07/21 07:48:18;;;;;;;15.07;11.18;;;20.20;99.90;;;;;;5021102;28;20049;-91
2022/07/21 07:50:44;;;;;;;17.20;11.50;;;20.20;99.90;;;;;;5004182;28;20047;-90
2022/07/21 07:53:09;;;;;;;12.68;10.32;;;20.20;99.90;;;;;;5022035;28;20494;-87
2022/07/21 07:55:36;;;;;;;12.63;9.00;;;20.20;99.90;;;;;;5022755;28;20048;-86
2022/07/21 07:58:01;;;;;;;10.18;8.85;;;20.20;99.90;;;;;;5003453;28;20163;-85
2022/07/21 08:00:27;;;;;;;11.00;8.85;;;20.10;99.90;;;;;;5020931;28;20703;-85
2022/07/21 08:02:52;;;;;;;10.43;8.85;;;20.10;99.90;;;;;;5021017;28;20399;-85
2022/07/21 08:05:18;;;;;;;10.60;8.77;;;20.10;99.90;;;;;;5022104;28;20046;-85
2022/07/21 08:07:44;;;;;;;12.25;8.25;;;20.10;99.90;;;;;;5002922;28;20241;-85
2022/07/21 08:10:12;;;;;;;10.02;8.13;;;20.10;99.90;;;;;;5019678;28;20043;-86
2022/07/21 08:12:38;;;;;;;15.40;9.70;;;20.10;99.90;;;;;;5014299;28;20595;-86
2022/07/21 08:15:04;;;;;;;13.13;10.07;;;20.10;99.90;;;;;;5049897;28;20624;-85
2022/07/21 08:17:30;;;;;;;12.25;9.35;;;20.10;99.90;;;;;;5060159;28;20052;-86
2022/07/21 08:19:56;;;;;;;15.07;11.10;;;20.10;99.90;;;;;;5060208;28;20037;-84
2022/07/21 08:22:21;;;;;;;13.82;10.30;;;20.10;99.90;;;;;;5060478;28;20036;-84
2022/07/21 08:24:47;;;;;;;16.38;10.55;;;20.10;99.90;;;;;;5040861;28;20091;-83
2022/07/21 08:27:13;;;;;;;14.73;10.95;;;20.10;99.90;;;;;;5060241;28;20139;-77
2022/07/21 08:29:38;;;;;;;20.27;12.27;;;20.20;99.90;;;;;;5042486;28;20537;-81
2022/07/21 08:32:04;;;;;;;14.85;12.10;;;20.20;99.90;;;;;;5060516;28;20044;-78
2022/07/21 08:34:30;;;;;;;18.40;12.10;;;20.20;99.90;;;;;;5061521;28;20028;-77
2022/07/21 08:36:57;;;;;;;14.90;13.52;;;20.20;99.90;;;;;;5061193;28;20048;-78
2022/07/21 08:39:22;;;;;;;19.85;13.23;;;20.20;99.90;;;;;;5042364;28;20043;-77
2022/07/21 08:41:49;;;;;;;16.48;11.60;;;20.30;99.90;;;;;;5061101;28;20473;-78
2022/07/21 08:44:14;;;;;;;17.83;14.15;;;20.30;99.90;;;;;;5061164;28;20052;-77
2022/07/21 08:46:43;;;;;;;20.40;15.10;;;20.30;99.90;;;;;;5061906;28;20487;-77
2022/07/21 08:49:10;;;;;;;18.30;15.02;;;20.40;99.90;;;;;;5061262;28;20048;-79
2022/07/21 08:51:36;;;;;;;14.15;12.65;;;20.40;99.90;;;;;;5061468;28;20044;-79
2022/07/21 08:54:03;;;;;;;17.52;13.88;;;20.40;99.90;;;;;;5041930;28;20131;-79
2022/07/21 08:56:28;;;;;;;21.42;15.82;;;20.50;99.90;;;;;;5042102;28;20056;-80
2022/07/21 08:58:54;;;;;;;16.48;14.88;;;20.40;99.90;;;;;;5053774;28;20055;-82
2022/07/21 09:01:23;;;;;;;19.95;13.10;;;20.50;99.90;;;;;;5061308;28;20055;-81
2022/07/21 09:03:50;;;;;;;19.50;14.20;;;20.50;99.90;;;;;;5060038;28;20040;-85
2022/07/21 09:06:16;;;;;;;17.65;11.27;;;20.40;99.90;;;;;;5061594;28;20047;-86
2022/07/21 09:08:50;;;;;;;12.32;10.48;;;20.40;99.90;;;;;;5079574;28;20044;-84
2022/07/21 09:11:19;;;;;;;12.20;10.63;;;20.40;99.90;;;;;;5056539;28;20040;-79
2022/07/21 09:13:51;;;;;;;13.25;11.23;;;20.40;99.90;;;;;;5054948;28;20171;-80
2022/07/21 09:16:52;;;;;;;12.38;11.07;;;20.40;99.90;;;;;;5057611;28;20044;-80
2022/07/21 09:19:24;;;;;;;13.35;10.38;;;20.30;99.90;;;;;;5039259;28;20260;-83
2022/07/21 09:21:53;;;;;;;13.40;11.65;;;20.30;99.90;;;;;;5056410;28;20037;-84
2022/07/21 09:24:25;;;;;;;15.13;13.02;;;20.20;99.90;;;;;;5056165;28;20093;-84
2022/07/21 09:27:17;;;;;;;14.70;13.20;;;20.20;99.90;;;;;;5021892;28;20048;-86
2022/07/21 09:29:49;;;;;;;15.23;11.95;;;20.20;99.90;;;;;;5043195;28;20060;-82
2022/07/21 09:32:28;;;;;;;16.70;12.30;;;20.20;99.90;;;;;;5042090;28;20037;-82
2022/07/21 09:35:09;;;;;;;15.20;11.75;;;20.20;99.90;;;;;;5059046;28;20050;-84
2022/07/21 09:37:35;;;;;;;19.23;12.85;;;20.20;99.90;;;;;;5073931;28;20040;-81
2022/07/21 09:40:08;;;;;;;15.90;12.93;;;20.10;99.90;;;;;;5062306;28;20071;-83
2022/07/21 09:42:36;;;;;;;14.45;10.80;;;20.10;99.90;;;;;;5059484;28;20349;-81
2022/07/21 09:45:13;;;;;;;8.25;7.38;;;20.10;99.90;;;;;;5058790;28;20036;-82
2022/07/21 09:47:40;;;;;;;13.80;8.65;;;20.10;99.90;;;;;;5059206;28;20052;-86
2022/07/21 09:50:08;;;;;;;15.20;9.80;;;20.10;99.90;;;;;;5040483;28;20464;-89
2022/07/21 09:52:37;;;;;;;13.30;9.43;;;20.00;99.90;;;;;;5051642;28;20048;-89
2022/07/21 09:55:06;;;;;;;11.82;9.45;;;20.00;99.90;;;;;;5030612;28;20045;-84
2022/07/21 09:57:32;;;;;;;15.35;10.70;;;20.00;99.90;;;;;;5007249;28;20048;-83
2022/07/21 09:59:59;;;;;;;14.32;10.85;;;19.90;99.90;;;;;;5061446;28;20036;-83
2022/07/21 10:02:28;;;;;;;14.32;12.65;;;19.90;99.90;;;;;;5078685;28;20044;-82
2022/07/21 10:05:05;;;;;;;14.48;12.18;;;19.90;99.90;;;;;;5070727;28;20040;-81
2022/07/21 10:07:32;;;;;;;18.23;12.70;;;19.80;99.90;;;;;;5058100;28;20540;-86
2022/07/21 10:09:58;;;;;;;25.45;13.00;;;19.80;99.90;;;;;;5058670;28;20040;-83
2022/07/21 10:12:26;;;;;;;17.33;13.20;;;19.70;99.90;;;;;;5058903;28;20474;-80
2022/07/21 10:14:52;;;;;;;10.27;7.80;;;19.70;99.90;;;;;;5044036;28;20053;-82
2022/07/21 10:17:20;;;;;;;10.55;8.23;;;19.60;99.90;;;;;;5054079;28;20174;-80
2022/07/21 10:19:51;;;;;;;11.23;9.02;;;19.60;99.90;;;;;;5038440;28;20041;-81
2022/07/21 10:22:43;;;;;;;9.60;8.70;;;19.50;99.90;;;;;;5036896;28;20048;-83
2022/07/21 10:25:09;;;;;;;12.23;8.98;;;19.40;99.90;;;;;;5041719;28;20311;-84
2022/07/21 10:27:35;;;;;;;10.30;8.50;;;19.40;99.90;;;;;;5059830;28;20036;-84
2022/07/21 10:30:04;;;;;;;11.68;9.40;;;19.40;99.90;;;;;;5059535;28;20045;-84
2022/07/21 10:32:34;;;;;;;13.68;11.20;;;19.40;99.90;;;;;;5030496;28;20485;-85
2022/07/21 10:35:21;;;;;;;10.98;9.40;;;19.40;99.90;;;;;;5055031;28;20513;-84
2022/07/21 10:37:47;;;;;;;11.82;10.02;;;19.40;99.90;;;;;;5007644;28;20049;-84
2022/07/21 10:40:19;;;;;;;16.67;10.60;;;19.40;99.90;;;;;;5052437;28;20509;-84
2022/07/21 10:42:45;;;;;;;13.15;10.52;;;19.40;99.90;;;;;;5061143;28;20181;-84
2022/07/21 10:45:38;;;;;;;11.52;8.75;;;19.30;99.90;;;;;;5052404;28;20048;-85
2022/07/21 10:48:06;;;;;;;13.57;9.70;;;19.40;99.90;;;;;;5051969;28;20465;-82
2022/07/21 10:50:35;;;;;;;14.07;10.13;;;19.30;99.90;;;;;;5044722;28;20958;-81
2022/07/21 10:53:02;;;;;;;14.70;9.70;;;19.30;99.90;;;;;;5061637;28;20033;-81
2022/07/21 10:55:30;;;;;;;10.02;9.02;;;19.30;99.90;;;;;;5062986;28;20040;-82
2022/07/21 10:58:25;;;;;;;10.63;9.48;;;19.30;99.90;;;;;;5055327;28;20047;-89
2022/07/21 11:00:56;;;;;;;12.25;9.40;;;19.40;99.90;;;;;;5024752;28;20569;-85
2022/07/21 11:03:30;;;;;;;10.32;8.90;;;19.40;99.90;;;;;;5043725;28;20041;-83
2022/07/21 11:06:14;;;;;;;14.00;10.68;;;19.40;99.90;;;;;;5024164;28;20037;-80
2022/07/21 11:09:04;;;;;;;11.35;9.80;;;19.40;99.90;;;;;;5024862;28;20132;-80
2022/07/21 11:11:40;;;;;;;14.05;10.95;;;19.30;99.90;;;;;;5040839;28;20261;-79
2022/07/21 11:14:14;;;;;;;13.50;10.48;;;19.40;99.90;;;;;;5059785;28;20129;-79
2022/07/21 11:16:43;;;;;;;11.45;9.70;;;19.40;99.90;;;;;;5043938;28;20294;-79
2022/07/21 11:19:28;;;;;;;12.77;9.63;;;19.40;99.90;;;;;;5044271;28;20394;-79
2022/07/21 11:21:55;;;;;;;9.45;8.52;;;19.30;99.90;;;;;;5043299;28;20307;-79
2022/07/21 11:24:23;;;;;;;10.68;9.45;;;19.30;99.90;;;;;;5060941;28;20068;-80
2022/07/21 11:27:02;;;;;;;10.15;9.13;;;19.30;99.90;;;;;;5061167;28;20482;-81
2022/07/21 11:29:29;;;;;;;9.88;8.90;;;19.30;99.90;;;;;;5056752;28;20508;-79
2022/07/21 11:31:56;;;;;;;11.50;9.40;;;19.40;99.90;;;;;;5031524;28;20041;-79
2022/07/21 11:34:23;;;;;;;9.55;8.52;;;19.40;99.90;;;;;;5028243;28;20045;-78
2022/07/21 11:36:58;;;;;;;12.43;7.45;;;19.40;99.90;;;;;;5026910;28;20053;-81
2022/07/21 11:39:24;;;;;;;10.80;9.25;;;19.40;99.90;;;;;;5022270;28;20042;-84
2022/07/21 11:41:51;;;;;;;15.35;8.07;;;19.40;99.90;;;;;;5004942;28;20643;-81
2022/07/21 11:44:26;;;;;;;10.57;8.90;;;19.40;99.90;;;;;;5022919;28;20068;-84
2022/07/21 11:46:54;;;;;;;9.48;8.30;;;19.40;99.90;;;;;;5012959;28;20046;-79
2022/07/21 11:49:20;;;;;;;9.35;7.72;;;19.40;99.90;;;;;;5037258;28;20682;-78
2022/07/21 11:51:57;;;;;;;10.50;8.63;;;19.50;99.90;;;;;;5042374;28;20045;-79
2022/07/21 11:54:36;;;;;;;10.63;8.50;;;19.50;99.90;;;;;;5035562;28;20049;-82
2022/07/21 11:57:07;;;;;;;12.48;7.82;;;19.50;99.90;;;;;;5030978;28;20029;-81
2022/07/21 11:59:36;;;;;;;12.25;9.02;;;19.50;99.90;;;;;;5057667;28;20044;-81
2022/07/21 12:02:13;;;;;;;13.02;7.65;;;19.50;99.90;;;;;;5042111;28;20048;-82
2022/07/21 12:04:42;;;;;;;10.82;8.88;;;19.50;99.90;;;;;;5042742;28;20049;-81
2022/07/21 12:07:17;;;;;;;9.57;8.55;;;19.50;99.90;;;;;;5037088;28;20079;-80
2022/07/21 12:09:44;;;;;;;10.27;6.75;;;19.50;99.90;;;;;;5025062;28;20044;-77
2022/07/21 12:12:11;;;;;;;5.80;5.30;;;19.50;99.90;;;;;;5045530;28;20056;-77
2022/07/21 12:14:43;;;;;;;5.13;4.70;;;19.50;99.90;;;;;;5075865;28;20097;-80
2022/07/21 12:17:09;;;;;;;6.43;5.78;;;19.40;99.90;;;;;;5074222;28;20040;-81
2022/07/21 12:19:36;;;;;;;5.53;5.05;;;19.40;99.90;;;;;;5041820;28;20040;-79
2022/07/21 12:22:02;;;;;;;5.85;5.25;;;19.40;99.90;;;;;;5041670;28;20041;-81
2022/07/21 12:24:48;;;;;;;6.72;6.00;;;19.40;99.90;;;;;;5041242;28;20607;-80
2022/07/21 12:27:16;;;;;;;7.10;5.60;;;19.40;99.90;;;;;;5041436;28;20029;-79
2022/07/21 12:29:41;;;;;;;10.10;6.30;;;19.40;99.90;;;;;;5042632;28;20486;-79
2022/07/21 12:32:07;;;;;;;7.25;6.25;;;19.40;99.90;;;;;;5042798;28;20044;-79
2022/07/21 12:34:51;;;;;;;6.28;5.65;;;19.30;99.90;;;;;;5048789;28;20055;-80
2022/07/21 12:37:16;;;;;;;6.90;4.97;;;19.30;99.90;;;;;;5083220;28;20032;-80